Charleston, SC

1:38 PM EST on December 18, 2014 (GMT -0500)
Charleston Air Force Base-International | Change Station
CLOSE
Current Station
Airport
Location: Charleston,
Elevation: 46 ft
Nearby Weather Stations

Elev 46 ft 32.90 °N, 80.04 °W | Updated 42 minutes ago

Clear
Clear
61 °F
Feels Like 61 °F
N
4
Wind Variable Wind from Variable

Today
High -- | Low -- °F
--% Chance of Precip.
Yesterday
High -- | Low -- °F
Precip. -- in
7:16 AM 5:16 PM
Waning Crescent, 13% visible
Pressure 30.10 in
Visibility 10.0 miles
Clouds Few 20000 ft
Dew Point 41 °F
Humidity 48%
Rainfall 0.00 in
Snow Depth Not available.
UV 4 out of 12
Pollen 2.60 out of 12
Air Quality Not available.
Flu Activity Not available.
METAR KCHS 181756Z VRB03KT 10SM FEW200 16/05 A3010 RMK AO2 SLP191 T01610050 10167 20044 58025

More Conditions Fewer Conditions

Pressure 30.10 in
Visibility 10.0 miles
Clouds Few 20000 ft
Dew Point 41 °F
Humidity 48%
Rainfall 0.00 in
Snow Depth Not available.
UV 4 out of 12
Pollen 2.60 out of 12
Air Quality Not available.
Flu Activity Not available.
METAR KCHS 181756Z VRB03KT 10SM FEW200 16/05 A3010 RMK AO2 SLP191 T01610050 10167 20044 58025

More Conditions Fewer Conditions

10-Day Weather Forecast

Almanac

Astronomy

Dec. 18, 2014 Rise Set
Actual Time
Civil Twilight
Nautical Twilight
Astronomical Twilight
Moon
Length of Visible Light
Length of Day
Tomorrow will be .
, % of the Moon is Illuminated

Today's Extremes

State Highs State Lows

Community

WunderPhotos

Upload Photos

1,778,973 photos uploaded!

WunderBlogs® & News

Nearby

Air Quality

  Air Quality AQ Index Pollutant
Not available.

Snow Depth

Station Depth Elevation

Earthquake Activity

City Distance Mag. Time & Date
Minimum magnitude displayed is 2.5.

Coastal Water Temperatures

Place Temperature

Nearby Weather Stations